Time;durP1;ratioP1;P1;durP2;ratioP2;P2;SDS_P1;SDS_P2;PMS_P1;PMS_P2;Temp;Humidity;BMP_temperature;BMP_pressure;BME280_temperature;BME280_humidity;BME280_pressure;Samples;Min_cycle;Max_cycle;Signal;HPM_P1;HPM_P2
2022/06/03 00:01:47;;;;;;;0.33;0.33;;;15.80;99.90;15.80;101788.00;;;;5035392;28;20934;-63
2022/06/03 00:04:42;;;;;;;0.20;0.20;;;15.70;99.90;16.10;101785.00;;;;5035121;28;20179;-64
2022/06/03 00:07:54;;;;;;;0.23;0.23;;;15.70;99.90;16.10;101782.00;;;;5035105;28;20212;-63
2022/06/03 00:11:09;;;;;;;0.30;0.30;;;15.60;99.90;16.10;101786.00;;;;5034985;28;20174;-63
2022/06/03 00:14:00;;;;;;;0.20;0.20;;;15.70;99.90;15.90;101768.00;;;;5011407;28;20196;-63
2022/06/03 00:16:50;;;;;;;0.10;0.10;;;15.60;99.90;16.00;101770.00;;;;5013657;28;20191;-64
2022/06/03 00:19:42;;;;;;;1.40;0.83;;;15.60;99.90;16.00;101775.00;;;;4998148;28;20198;-64
2022/06/03 00:22:22;;;;;;;0.30;0.30;;;15.50;99.90;15.60;101754.00;;;;5015811;28;20210;-63
2022/06/03 00:24:54;;;;;;;1.47;1.37;;;15.40;99.90;15.30;101749.00;;;;5014637;28;20639;-63
2022/06/03 00:28:02;;;;;;;0.20;0.20;;;15.30;99.90;15.30;101735.00;;;;5015848;28;20198;-62
2022/06/03 00:30:43;;;;;;;0.50;0.50;;;15.20;99.90;15.30;101706.00;;;;5014762;28;20559;-63
2022/06/03 00:33:37;;;;;;;0.63;0.63;;;15.20;99.90;15.60;101733.00;;;;5014503;28;20242;-63
2022/06/03 00:36:31;;;;;;;0.10;0.10;;;15.10;99.90;15.80;101709.00;;;;5015480;28;20534;-63
2022/06/03 00:39:34;;;;;;;2.83;2.20;;;15.30;99.90;15.70;101743.00;;;;5014093;28;20607;-63
2022/06/03 00:43:02;;;;;;;0.37;0.37;;;15.40;99.90;15.50;101731.00;;;;5022058;28;20646;-63
2022/06/03 00:46:18;;;;;;;0.20;0.20;;;15.30;99.90;15.90;101739.00;;;;5020626;28;20612;-63
2022/06/03 00:49:10;;;;;;;0.10;0.10;;;15.40;99.90;15.60;101722.00;;;;5033153;28;20236;-64
2022/06/03 00:52:14;;;;;;;0.20;0.20;;;15.40;99.90;15.30;101730.00;;;;5034319;28;20212;-64
2022/06/03 00:55:07;;;;;;;0.10;0.10;;;15.30;99.90;16.10;101736.00;;;;5033476;28;20174;-63
2022/06/03 00:58:08;;;;;;;1.47;1.33;;;15.50;99.90;15.50;101723.00;;;;5034792;28;20185;-63
2022/06/03 01:00:55;;;;;;;0.10;0.10;;;15.30;99.90;15.30;101689.00;;;;5034954;28;20188;-63
2022/06/03 01:03:56;;;;;;;1.60;0.83;;;15.10;99.90;15.10;101703.00;;;;5034502;28;20178;-63
2022/06/03 01:06:32;;;;;;;0.10;0.10;;;15.00;99.90;15.10;101706.00;;;;5034661;28;20610;-64
2022/06/03 01:09:22;;;;;;;0.50;0.43;;;15.00;99.90;15.10;101690.00;;;;5033592;28;20169;-64
2022/06/03 01:12:00;;;;;;;0.43;0.43;;;15.00;99.90;15.60;101701.00;;;;5033431;28;20554;-64
2022/06/03 01:15:12;;;;;;;2.63;1.63;;;15.10;99.90;15.40;101700.00;;;;5034049;28;20186;-63
2022/06/03 01:18:04;;;;;;;0.20;0.20;;;15.10;99.90;15.30;101695.00;;;;5033749;28;20520;-64
2022/06/03 01:20:40;;;;;;;0.60;0.60;;;15.10;99.90;15.30;101690.00;;;;5032006;28;20526;-63
2022/06/03 01:23:30;;;;;;;0.30;0.30;;;15.10;99.90;15.20;101658.00;;;;5032165;28;20196;-64
2022/06/03 01:26:20;;;;;;;0.20;0.20;;;15.10;99.90;15.10;101675.00;;;;5016596;28;20216;-63
2022/06/03 01:29:00;;;;;;;0.20;0.20;;;15.00;99.90;15.50;101687.00;;;;5034057;28;20190;-64
2022/06/03 01:32:30;;;;;;;3.50;3.30;;;15.00;99.90;15.40;101697.00;;;;5031373;28;20220;-64
2022/06/03 01:35:20;;;;;;;0.23;0.23;;;15.20;99.90;15.40;101692.00;;;;5034055;28;20182;-63
2022/06/03 01:37:53;;;;;;;0.27;0.27;;;15.10;99.90;14.90;101678.00;;;;5033960;28;20180;-64
2022/06/03 01:40:31;;;;;;;0.60;0.50;;;15.00;99.90;14.70;101662.00;;;;5031983;28;20163;-64
2022/06/03 01:43:24;;;;;;;0.57;0.50;;;14.70;99.90;15.10;101676.00;;;;5031209;28;20273;-63
2022/06/03 01:46:17;;;;;;;0.30;0.30;;;14.90;99.90;14.70;101655.00;;;;5033752;28;20235;-63
2022/06/03 01:49:10;;;;;;;0.20;0.20;;;14.70;99.90;14.70;101650.00;;;;5031725;28;20699;-63
2022/06/03 01:51:51;;;;;;;0.20;0.20;;;14.60;99.90;14.90;101657.00;;;;5032096;28;20343;-63
2022/06/03 01:55:05;;;;;;;0.20;0.20;;;14.60;99.90;14.60;101621.00;;;;5033136;28;20230;-63
2022/06/03 01:58:04;;;;;;;0.30;0.30;;;14.50;99.90;14.50;101637.00;;;;5028617;28;20201;-63
2022/06/03 02:00:41;;;;;;;0.97;0.97;;;14.50;99.90;14.50;101631.00;;;;5033293;28;20226;-63
2022/06/03 02:03:19;;;;;;;0.20;0.20;;;14.50;99.90;14.50;101629.00;;;;5032516;28;20207;-63
2022/06/03 02:05:51;;;;;;;0.10;0.10;;;14.60;99.90;14.60;101629.00;;;;5032950;28;20175;-63
2022/06/03 02:08:47;;;;;;;0.30;0.30;;;14.50;99.90;14.30;101594.00;;;;5033512;28;20576;-63
2022/06/03 02:12:03;;;;;;;3.10;3.00;;;14.50;99.90;14.70;101629.00;;;;5033121;28;20288;-63
2022/06/03 02:14:58;;;;;;;0.17;0.17;;;14.60;99.90;14.70;101621.00;;;;5014991;28;20197;-63
2022/06/03 02:17:42;;;;;;;0.57;0.57;;;14.60;99.90;14.80;101625.00;;;;5032160;28;20283;-62
2022/06/03 02:20:25;;;;;;;0.50;0.47;;;14.70;99.90;14.70;101622.00;;;;5033811;28;20176;-63
2022/06/03 02:23:09;;;;;;;0.20;0.20;;;14.60;99.90;14.70;101619.00;;;;5031933;28;20166;-63
2022/06/03 02:26:30;;;;;;;0.30;0.30;;;14.60;99.90;14.50;101606.00;;;;5032762;28;20169;-63
2022/06/03 02:32:47;;;;;;;0.40;0.40;;;14.70;99.90;15.00;101587.00;;;;5033040;28;20787;-64
2022/06/03 02:35:34;;;;;;;0.20;0.20;;;14.70;99.90;15.20;101623.00;;;;5032120;28;20204;-63
2022/06/03 02:38:37;;;;;;;0.20;0.20;;;14.80;99.90;15.10;101624.00;;;;5033020;28;20593;-63
2022/06/03 02:41:30;;;;;;;0.63;0.63;;;14.90;99.90;14.40;101597.00;;;;5033225;28;20256;-63
2022/06/03 02:44:38;;;;;;;0.30;0.30;;;14.80;99.90;14.30;101544.00;;;;5031294;28;20196;-64
2022/06/03 02:48:01;;;;;;;0.30;0.30;;;14.50;99.90;14.00;101569.00;;;;5031904;28;20647;-63
2022/06/03 02:50:53;;;;;;;0.17;0.17;;;14.40;99.90;14.10;101563.00;;;;5032831;28;20188;-63
2022/06/03 02:54:08;;;;;;;0.60;0.60;;;14.20;99.90;14.00;101559.00;;;;5031897;28;20165;-62
2022/06/03 02:57:24;;;;;;;0.20;0.20;;;14.20;99.90;14.40;101573.00;;;;5032621;28;20546;-63
2022/06/03 03:00:15;;;;;;;4.73;0.80;;;14.40;99.90;14.30;101572.00;;;;5032975;28;20170;-63
2022/06/03 03:03:19;;;;;;;0.20;0.20;;;14.40;99.90;14.20;101572.00;;;;5032230;28;20194;-63
2022/06/03 03:06:19;;;;;;;0.53;0.53;;;14.40;99.90;14.60;101574.00;;;;5033033;28;20176;-63
2022/06/03 03:09:39;;;;;;;0.47;0.47;;;14.50;99.90;14.30;101570.00;;;;5032816;28;20179;-65
2022/06/03 03:12:13;;;;;;;0.40;0.40;;;14.40;99.90;14.30;101563.00;;;;4974620;28;20193;-64
2022/06/03 03:15:13;;;;;;;0.67;0.67;;;14.40;99.90;13.90;101562.00;;;;4991107;28;20364;-64
2022/06/03 03:18:16;;;;;;;2.20;0.63;;;14.20;99.90;14.20;101555.00;;;;5026303;28;20607;-63
2022/06/03 03:21:03;;;;;;;0.33;0.33;;;14.20;99.90;14.40;101554.00;;;;5035879;28;20195;-63
2022/06/03 03:23:44;;;;;;;0.20;0.20;;;14.40;99.90;14.10;101549.00;;;;5036400;28;20186;-63
2022/06/03 03:26:12;;;;;;;0.30;0.30;;;14.30;99.90;14.10;101519.00;;;;5036362;28;20227;-64
2022/06/03 03:28:53;;;;;;;1.13;1.13;;;14.30;99.90;14.00;101545.00;;;;5035992;28;20197;-63
2022/06/03 03:31:34;;;;;;;0.40;0.40;;;14.20;99.90;14.80;101556.00;;;;5036030;28;20220;-63
2022/06/03 03:34:20;;;;;;;0.50;0.50;;;14.40;99.90;14.80;101567.00;;;;5035863;28;20177;-64
2022/06/03 03:37:25;;;;;;;0.50;0.50;;;14.50;99.90;14.60;101565.00;;;;5035565;28;20169;-63
2022/06/03 03:40:19;;;;;;;0.27;0.27;;;14.60;99.90;14.00;101549.00;;;;5036268;28;20360;-63
2022/06/03 03:43:44;;;;;;;0.20;0.20;;;14.40;99.90;14.40;101548.00;;;;5035554;28;20184;-63
2022/06/03 03:46:50;;;;;;;0.40;0.40;;;14.30;99.90;14.10;101505.00;;;;5035519;28;20173;-64
2022/06/03 03:49:40;;;;;;;0.57;0.57;;;14.30;99.90;14.60;101538.00;;;;5036371;28;20202;-63
2022/06/03 03:52:33;;;;;;;0.27;0.27;;;14.30;99.90;14.20;101541.00;;;;5034708;28;20660;-63
2022/06/03 03:56:09;;;;;;;1.13;1.13;;;14.20;99.90;13.90;101530.00;;;;5035823;28;20179;-63
2022/06/03 03:59:16;;;;;;;0.20;0.20;;;14.20;99.90;14.80;101539.00;;;;5000743;28;20198;-63
2022/06/03 04:02:16;;;;;;;0.20;0.20;;;14.50;99.90;14.20;101531.00;;;;5035672;28;20564;-63
2022/06/03 04:04:53;;;;;;;0.37;0.37;;;14.40;99.90;14.80;101511.00;;;;5034474;28;20213;-63
2022/06/03 04:07:56;;;;;;;0.40;0.40;;;14.60;99.90;13.90;101530.00;;;;5034092;28;20171;-63
2022/06/03 04:10:46;;;;;;;0.30;0.30;;;14.40;99.90;14.20;101528.00;;;;5033225;28;20375;-63
2022/06/03 04:13:58;;;;;;;0.43;0.43;;;14.30;99.90;14.70;101538.00;;;;5035552;28;20208;-63
2022/06/03 04:17:13;;;;;;;0.40;0.40;;;14.40;99.90;14.60;101547.00;;;;5035349;28;20239;-64
2022/06/03 04:19:47;;;;;;;0.20;0.20;;;14.60;99.90;14.70;101551.00;;;;5034241;28;20236;-63
2022/06/03 04:22:59;;;;;;;0.40;0.40;;;14.60;99.90;15.00;101555.00;;;;5035465;28;20173;-63
2022/06/03 04:26:12;;;;;;;1.47;1.33;;;14.70;99.90;14.60;101552.00;;;;5014134;28;20190;-63
2022/06/03 04:29:34;;;;;;;0.20;0.20;;;14.80;99.90;15.40;101553.00;;;;5034970;28;20163;-63
2022/06/03 04:32:40;;;;;;;0.33;0.33;;;15.10;99.90;16.70;101583.00;;;;5034880;28;20219;-63
2022/06/03 04:35:50;;;;;;;0.27;0.27;;;16.00;99.90;16.10;101579.00;;;;5035059;28;20186;-63
2022/06/03 04:38:43;;;;;;;0.40;0.40;;;16.20;99.90;18.30;101629.00;;;;5035143;28;20176;-63
2022/06/03 04:41:55;;;;;;;0.40;0.40;;;17.10;99.90;18.70;101607.00;;;;5034675;28;20179;-63
2022/06/03 04:44:52;;;;;;;0.83;0.83;;;17.80;99.90;19.20;101662.00;;;;5032809;28;20638;-64
2022/06/03 04:47:27;;;;;;;2.30;2.08;;;18.30;99.90;17.30;101624.00;;;;5034964;28;20182;-63
2022/06/03 04:50:36;;;;;;;0.43;0.43;;;18.30;99.90;18.70;101655.00;;;;5034175;28;20177;-64
2022/06/03 04:53:38;;;;;;;1.23;1.13;;;18.10;99.90;19.10;101670.00;;;;5034469;28;20639;-63
2022/06/03 04:57:03;;;;;;;0.20;0.20;;;18.30;99.90;19.40;101672.00;;;;5033629;28;20637;-64
2022/06/03 05:00:04;;;;;;;1.27;0.45;;;18.50;99.90;19.40;101682.00;;;;5016582;28;20638;-63
2022/06/03 05:03:34;;;;;;;4.43;3.03;;;18.90;99.90;19.20;101682.00;;;;5032262;28;20185;-63
2022/06/03 05:07:04;;;;;;;0.10;0.10;;;19.50;99.90;21.30;101700.00;;;;5034154;28;20186;-63
2022/06/03 05:10:08;;;;;;;0.85;0.75;;;19.80;99.90;21.10;101700.00;;;;5034358;28;20213;-63
2022/06/03 05:13:17;;;;;;;0.43;0.43;;;20.40;99.90;21.10;101703.00;;;;5026694;28;20222;-63
2022/06/03 05:16:43;;;;;;;0.10;0.10;;;20.30;99.90;21.60;101718.00;;;;5033923;28;20611;-63
2022/06/03 05:19:30;;;;;;;0.93;0.93;;;20.50;99.90;20.40;101704.00;;;;5014948;28;20517;-64
2022/06/03 05:22:07;;;;;;;3.90;1.00;;;20.40;99.90;20.00;101692.00;;;;5034021;28;20175;-64
2022/06/03 05:24:48;;;;;;;1.17;1.08;;;20.00;99.90;18.80;101686.00;;;;5034309;28;20175;-64
2022/06/03 05:28:08;;;;;;;0.30;0.30;;;19.10;99.90;20.00;101698.00;;;;5034294;28;20171;-63
2022/06/03 05:31:11;;;;;;;0.30;0.30;;;19.30;99.90;20.20;101704.00;;;;5034256;28;20653;-64
2022/06/03 05:34:22;;;;;;;0.10;0.10;;;19.90;99.90;18.60;101694.00;;;;5034159;28;20673;-63
2022/06/03 05:37:26;;;;;;;0.10;0.10;;;19.30;99.90;20.80;101716.00;;;;5033144;28;20646;-63
2022/06/03 05:40:29;;;;;;;0.50;0.50;;;19.40;99.90;20.80;101711.00;;;;5034569;28;20198;-63
2022/06/03 05:43:34;;;;;;;0.82;0.82;;;20.20;99.90;20.90;101712.00;;;;5032781;28;20631;-64
2022/06/03 05:46:33;;;;;;;0.50;0.50;;;20.10;99.90;21.20;101719.00;;;;5033636;28;20167;-64
2022/06/03 05:49:08;;;;;;;1.05;1.02;;;20.60;99.90;21.40;101727.00;;;;5033988;28;20181;-65
2022/06/03 05:51:46;;;;;;;1.92;0.88;;;20.80;99.90;21.20;101724.00;;;;5031079;28;20202;-64
2022/06/03 05:54:23;;;;;;;0.40;0.40;;;20.60;99.90;20.80;101717.00;;;;5032269;28;20185;-64
2022/06/03 05:57:30;;;;;;;2.65;1.95;;;20.80;99.90;21.70;101728.00;;;;5033594;28;20167;-64
2022/06/03 06:00:15;;;;;;;1.00;0.73;;;20.90;99.90;20.10;101715.00;;;;5010823;28;20195;-63
2022/06/03 06:02:53;;;;;;;0.30;0.30;;;20.30;99.90;21.30;101720.00;;;;5032433;28;20190;-64
2022/06/03 06:05:48;;;;;;;1.13;0.85;;;20.70;99.90;21.20;101709.00;;;;5032725;28;20171;-63
2022/06/03 06:08:27;;;;;;;6.22;5.57;;;20.70;99.90;21.60;101694.00;;;;5030977;28;20168;-64
2022/06/03 06:11:09;;;;;;;0.10;0.10;;;21.10;99.90;23.20;101732.00;;;;5033511;28;20170;-64
2022/06/03 06:13:59;;;;;;;0.75;0.73;;;21.80;99.90;20.40;101717.00;;;;5032738;28;20209;-64
2022/06/03 06:16:40;;;;;;;0.20;0.20;;;21.40;99.90;23.30;101724.00;;;;5032765;28;20213;-64
2022/06/03 06:19:06;;;;;;;1.58;1.48;;;22.20;99.90;23.90;101725.00;;;;5032220;28;20174;-64
2022/06/03 06:22:17;;;;;;;1.23;0.38;;;23.00;99.90;23.30;101735.00;;;;5032007;28;20258;-64
2022/06/03 06:25:19;;;;;;;0.55;0.55;;;22.90;99.90;23.30;101743.00;;;;5032223;28;20174;-64
2022/06/03 06:27:57;;;;;;;2.33;2.17;;;23.10;99.90;21.40;101729.00;;;;5030731;28;20162;-63
2022/06/03 06:30:57;;;;;;;1.45;1.35;;;22.20;99.90;22.50;101738.00;;;;5032273;28;20312;-64
2022/06/03 06:33:32;;;;;;;0.47;0.47;;;22.50;99.90;23.50;101731.00;;;;5032920;28;20712;-64
2022/06/03 06:36:41;;;;;;;0.10;0.10;;;22.60;99.90;24.70;101732.00;;;;5032277;28;20271;-64
2022/06/03 06:39:30;;;;;;;0.60;0.60;;;23.80;99.90;24.40;101726.00;;;;5030986;28;20236;-64
2022/06/03 06:42:10;;;;;;;0.20;0.20;;;24.30;99.90;23.50;101698.00;;;;5031816;28;20511;-64
2022/06/03 06:44:51;;;;;;;0.10;0.10;;;24.00;99.90;23.80;101740.00;;;;5032695;28;20676;-64
2022/06/03 06:47:30;;;;;;;0.52;0.52;;;23.40;99.90;26.40;101733.00;;;;5033202;28;20240;-64
2022/06/03 06:50:29;;;;;;;1.65;0.63;;;24.80;99.90;24.80;101701.00;;;;5030265;28;20544;-64
2022/06/03 06:53:06;;;;;;;0.20;0.20;;;24.90;99.90;25.00;101692.00;;;;5033431;28;20237;-63
2022/06/03 06:56:11;;;;;;;0.90;0.90;;;24.60;99.90;24.80;101705.00;;;;5036699;28;20708;-64
2022/06/03 06:59:18;;;;;;;0.10;0.10;;;24.00;99.90;25.80;101684.00;;;;5059859;28;20191;-64
2022/06/03 07:02:10;;;;;;;1.20;1.13;;;25.20;99.90;23.70;101667.00;;;;5032320;28;20201;-63
2022/06/03 07:04:55;;;;;;;0.77;0.77;;;25.00;99.90;23.70;101700.00;;;;5009005;28;20203;-64
2022/06/03 07:07:35;;;;;;;1.88;1.35;;;24.40;99.90;22.10;101704.00;;;;5035757;28;20194;-63
2022/06/03 07:10:35;;;;;;;10.00;0.65;;;23.70;99.90;24.60;101682.00;;;;5035676;28;20313;-64
2022/06/03 07:13:19;;;;;;;0.85;0.77;;;23.80;99.90;24.00;101707.00;;;;5035690;28;20245;-64
2022/06/03 07:16:11;;;;;;;0.70;0.70;;;23.90;99.90;24.60;101700.00;;;;5035881;28;20653;-64
2022/06/03 07:22:12;;;;;;;2.05;0.90;;;24.90;99.90;25.60;101710.00;;;;5035301;28;20190;-64
2022/06/03 07:25:11;;;;;;;1.08;0.85;;;25.00;99.90;23.90;101722.00;;;;5035123;28;20178;-64
2022/06/03 07:27:42;;;;;;;0.10;0.10;;;24.00;99.90;25.20;101691.00;;;;5036664;28;20229;-64
2022/06/03 07:30:18;;;;;;;1.20;0.68;;;24.20;99.90;25.60;101692.00;;;;5035209;28;20167;-64
2022/06/03 07:32:58;;;;;;;0.10;0.10;;;24.80;99.90;24.40;101717.00;;;;5034666;28;20222;-64
2022/06/03 07:35:32;;;;;;;0.50;0.50;;;24.00;99.90;24.00;101720.00;;;;5036801;28;20198;-64
2022/06/03 07:38:05;;;;;;;2.40;2.20;;;23.70;99.90;22.00;101715.00;;;;5035804;28;20205;-64
2022/06/03 07:40:42;;;;;;;1.95;1.35;;;23.40;99.90;22.50;101707.00;;;;5034127;28;20179;-64
2022/06/03 07:43:36;;;;;;;0.60;0.60;;;22.80;99.90;25.10;101699.00;;;;5068497;28;20178;-64
2022/06/03 07:46:13;;;;;;;0.10;0.10;;;23.80;99.90;27.10;101694.00;;;;5036140;28;20712;-64
2022/06/03 07:48:40;;;;;;;0.63;0.63;;;25.50;99.90;26.60;101674.00;;;;5035828;28;20175;-64
2022/06/03 07:51:09;;;;;;;1.77;1.65;;;26.20;99.90;22.50;101679.00;;;;5035617;28;20531;-64
2022/06/03 07:53:56;;;;;;;0.20;0.20;;;24.50;99.90;24.30;101691.00;;;;5034810;28;20237;-64
2022/06/03 07:56:27;;;;;;;0.10;0.10;;;23.90;99.90;25.20;101673.00;;;;5030923;28;20200;-64
2022/06/03 07:59:06;;;;;;;1.15;1.15;;;24.60;99.90;23.00;101670.00;;;;5014434;28;20176;-65
2022/06/03 08:01:42;;;;;;;1.10;0.68;;;23.50;99.90;24.80;101679.00;;;;5014381;28;20206;-64
2022/06/03 08:04:16;;;;;;;0.43;0.43;;;23.90;99.90;26.10;101663.00;;;;5014092;28;20210;-64
2022/06/03 08:12:25;;;;;;;0.22;0.22;;;26.40;99.90;23.80;101659.00;;;;5015913;28;20350;-65
2022/06/03 08:14:50;;;;;;;0.10;0.10;;;25.40;99.90;25.70;101673.00;;;;5026220;28;20210;-67
2022/06/03 08:17:19;;;;;;;0.10;0.10;;;25.10;99.90;26.90;101648.00;;;;5034514;28;20615;-67
2022/06/03 08:19:46;;;;;;;1.20;0.43;;;26.10;99.90;26.10;101653.00;;;;5034039;28;20773;-67
2022/06/03 08:22:16;;;;;;;1.73;0.82;;;26.30;99.20;26.20;101630.00;;;;5034186;28;20528;-65
2022/06/03 08:24:57;;;;;;;2.95;2.63;;;25.80;99.90;22.90;101660.00;;;;5034611;28;20187;-64
2022/06/03 08:27:27;;;;;;;0.10;0.10;;;24.80;99.80;24.40;101646.00;;;;5032977;28;20186;-64
2022/06/03 08:30:02;;;;;;;0.10;0.10;;;24.10;99.90;23.40;101681.00;;;;5034197;28;20175;-64
2022/06/03 08:32:43;;;;;;;0.52;0.52;;;23.50;99.90;24.50;101669.00;;;;5034517;28;20213;-64
2022/06/03 08:35:26;;;;;;;0.10;0.10;;;24.20;99.90;24.50;101676.00;;;;5033751;28;20197;-64
2022/06/03 08:38:04;;;;;;;0.20;0.20;;;24.00;99.90;26.20;101631.00;;;;5032734;28;20576;-63
2022/06/03 08:41:07;;;;;;;0.52;0.50;;;25.00;99.90;27.10;101657.00;;;;5035315;28;20163;-61
2022/06/03 08:43:57;;;;;;;0.17;0.17;;;25.90;99.70;27.60;101639.00;;;;5035057;28;20177;-61
2022/06/03 08:46:59;;;;;;;0.52;0.52;;;26.60;98.70;25.50;101635.00;;;;5033688;28;20190;-61
2022/06/03 08:49:44;;;;;;;2.60;1.10;;;26.30;98.00;27.80;101614.00;;;;5032210;28;20178;-61
2022/06/03 08:52:45;;;;;;;0.22;0.22;;;26.60;98.70;27.30;101624.00;;;;5034308;28;20213;-62
2022/06/03 08:55:50;;;;;;;1.27;0.98;;;27.40;97.50;23.20;101635.00;;;;5032709;28;20191;-63
2022/06/03 08:58:56;;;;;;;1.75;0.47;;;25.30;97.30;25.30;101627.00;;;;5000036;28;20186;-62
2022/06/03 09:01:47;;;;;;;2.47;2.28;;;24.90;99.00;23.70;101654.00;;;;5015235;28;20206;-66
2022/06/03 09:04:22;;;;;;;0.10;0.10;;;24.90;98.60;26.40;101649.00;;;;5040759;28;20201;-62
2022/06/03 09:07:06;;;;;;;0.60;0.60;;;25.50;98.50;25.60;101639.00;;;;5032322;28;20179;-62
2022/06/03 09:09:41;;;;;;;0.30;0.30;;;25.80;97.30;26.70;101641.00;;;;5028494;28;20203;-62
2022/06/03 09:12:26;;;;;;;0.75;0.70;;;26.00;97.80;27.10;101600.00;;;;5011971;28;20238;-62
2022/06/03 09:14:52;;;;;;;0.10;0.10;;;26.60;97.50;25.60;101647.00;;;;5019458;28;20650;-62
2022/06/03 09:17:33;;;;;;;0.30;0.30;;;25.80;97.80;26.20;101652.00;;;;5014434;28;20210;-62
2022/06/03 09:20:15;;;;;;;0.10;0.10;;;26.10;97.90;26.30;101630.00;;;;5031887;28;20190;-63
2022/06/03 09:22:44;;;;;;;0.85;0.85;;;26.10;98.00;24.60;101617.00;;;;5015815;28;20189;-62
2022/06/03 09:25:12;;;;;;;0.47;0.28;;;25.10;98.10;25.70;101644.00;;;;5032644;28;20227;-63
2022/06/03 09:27:41;;;;;;;0.40;0.40;;;25.30;97.10;26.90;101638.00;;;;5033024;28;20182;-63
2022/06/03 09:30:10;;;;;;;0.55;0.30;;;26.00;96.90;26.20;101623.00;;;;5032830;28;20694;-64
2022/06/03 09:32:47;;;;;;;5.63;0.73;;;26.20;96.90;27.90;101630.00;;;;5033077;28;20218;-63
2022/06/03 09:35:19;;;;;;;0.35;0.35;;;26.90;97.10;29.10;101616.00;;;;5032932;28;20265;-63
2022/06/03 09:37:50;;;;;;;1.17;0.52;;;28.00;95.60;28.60;101613.00;;;;5032710;28;20174;-68
2022/06/03 09:40:30;;;;;;;0.38;0.38;;;28.50;94.10;27.60;101589.00;;;;5016450;28;20622;-68
2022/06/03 09:43:15;;;;;;;0.35;0.20;;;27.80;94.30;28.80;101589.00;;;;5032408;28;20189;-68
2022/06/03 09:45:46;;;;;;;2.15;1.85;;;28.10;95.20;28.00;101608.00;;;;5016201;28;20628;-64
2022/06/03 09:48:16;;;;;;;0.77;0.77;;;28.10;94.00;25.50;101626.00;;;;5031903;28;20174;-64
2022/06/03 09:50:47;;;;;;;0.93;0.80;;;27.00;94.10;25.70;101625.00;;;;5002104;28;20190;-63
2022/06/03 09:53:19;;;;;;;0.40;0.40;;;26.10;95.10;26.30;101625.00;;;;5014000;28;20203;-64
2022/06/03 09:55:53;;;;;;;0.60;0.60;;;26.30;94.00;25.50;101594.00;;;;5031208;28;20190;-63
2022/06/03 09:58:25;;;;;;;1.25;0.90;;;25.40;95.40;24.60;101634.00;;;;5032271;28;20607;-64
2022/06/03 10:00:54;;;;;;;1.90;1.70;;;25.20;95.30;25.40;101635.00;;;;5032320;28;20174;-63
2022/06/03 10:03:22;;;;;;;0.32;0.32;;;25.10;96.60;26.00;101598.00;;;;5004350;28;20190;-64
2022/06/03 10:05:51;;;;;;;0.10;0.10;;;25.70;94.90;25.60;101619.00;;;;5032086;28;20182;-63
2022/06/03 10:08:25;;;;;;;0.47;0.47;;;25.30;94.70;27.10;101601.00;;;;5031697;28;20217;-64
2022/06/03 10:13:39;;;;;;;0.70;0.70;;;26.80;92.90;27.50;101600.00;;;;5030641;28;20189;-64
2022/06/03 10:16:07;;;;;;;0.45;0.32;;;27.00;92.50;27.50;101597.00;;;;5033060;28;20182;-64
2022/06/03 10:18:40;;;;;;;1.65;1.55;;;27.10;92.10;27.70;101590.00;;;;5015398;28;20619;-64
2022/06/03 10:33:20;;;;;;;0.70;0.70;;;26.80;90.90;27.30;101591.00;;;;5109554;27;1300888;-68
2022/06/03 10:35:49;;;;;;;3.60;0.55;;;27.20;89.90;27.70;101591.00;;;;5116743;28;20226;-63
2022/06/03 10:38:21;;;;;;;0.20;0.20;;;27.20;88.50;29.30;101587.00;;;;5117181;28;20244;-64
2022/06/03 10:40:51;;;;;;;0.40;0.40;;;28.10;89.90;27.60;101586.00;;;;5121145;28;20173;-65
2022/06/03 10:43:30;;;;;;;0.95;0.90;;;28.00;87.00;28.50;101591.00;;;;5103581;28;20533;-63
2022/06/03 10:46:12;;;;;;;0.52;0.52;;;28.20;89.40;28.80;101588.00;;;;5118849;28;20186;-63
2022/06/03 10:48:39;;;;;;;0.30;0.30;;;28.30;88.40;28.10;101577.00;;;;5120638;28;20191;-64
2022/06/03 11:02:44;;;;;;;0.20;0.20;;;27.60;85.70;28.90;101574.00;;;;5120540;28;20210;-64
2022/06/03 11:05:27;;;;;;;0.28;0.28;;;28.10;85.70;29.10;101566.00;;;;5110927;28;20180;-64
2022/06/03 11:08:09;;;;;;;0.15;0.15;;;28.70;85.10;29.20;101553.00;;;;5130139;28;20239;-64
2022/06/03 11:10:50;;;;;;;0.82;0.82;;;29.00;83.70;29.60;101578.00;;;;5129173;28;20213;-65
2022/06/03 11:13:39;;;;;;;0.73;0.40;;;29.50;81.00;28.20;101579.00;;;;5117401;28;20184;-64
2022/06/03 11:16:25;;;;;;;0.10;0.10;;;28.60;80.90;29.40;101575.00;;;;5127405;27;20187;-64
2022/06/03 11:18:52;;;;;;;0.68;0.68;;;29.10;80.60;29.30;101565.00;;;;5130290;27;20172;-64
2022/06/03 11:21:26;;;;;;;0.60;0.60;;;29.10;79.50;28.70;101562.00;;;;5129434;28;20562;-64
2022/06/03 11:24:16;;;;;;;0.35;0.35;;;29.10;78.70;29.60;101571.00;;;;5129390;28;20250;-64
2022/06/03 11:26:45;;;;;;;0.47;0.47;;;29.10;77.60;29.60;101555.00;;;;5128828;28;20190;-64
2022/06/03 11:29:25;;;;;;;0.40;0.20;;;29.40;77.00;27.30;101580.00;;;;5127799;28;20639;-63
2022/06/03 11:31:53;;;;;;;0.40;0.40;;;28.50;76.70;29.10;101565.00;;;;5119912;28;21384;-63
2022/06/03 11:34:44;;;;;;;1.30;0.43;;;28.40;78.00;28.70;101568.00;;;;5120051;28;20179;-64
2022/06/03 11:37:31;;;;;;;0.20;0.20;;;28.50;76.20;29.60;101566.00;;;;5121032;28;20234;-63
2022/06/03 11:40:22;;;;;;;0.63;0.63;;;29.10;77.00;29.60;101572.00;;;;5124823;28;20531;-70
2022/06/03 11:43:11;;;;;;;0.10;0.10;;;29.30;77.90;29.30;101580.00;;;;5116444;28;20180;-65
2022/06/03 11:46:00;;;;;;;0.20;0.20;;;29.10;75.20;28.60;101570.00;;;;5106554;28;20169;-65
2022/06/03 11:48:45;;;;;;;0.30;0.30;;;28.50;74.90;28.80;101589.00;;;;5106753;28;20177;-65
2022/06/03 11:51:13;;;;;;;0.20;0.20;;;28.40;75.20;27.30;101568.00;;;;5106852;28;20283;-65
2022/06/03 11:53:48;;;;;;;0.17;0.17;;;27.60;76.20;27.40;101588.00;;;;5105222;28;20169;-65
2022/06/03 11:56:21;;;;;;;0.88;0.77;;;27.30;75.50;27.60;101579.00;;;;5104582;28;20541;-65
2022/06/03 11:59:03;;;;;;;0.30;0.30;;;27.20;75.50;28.00;101544.00;;;;5104119;28;20172;-65
2022/06/03 12:01:50;;;;;;;0.68;0.68;;;27.20;74.90;28.20;101557.00;;;;5104703;28;20671;-65
2022/06/03 12:04:22;;;;;;;0.22;0.22;;;27.50;74.10;27.40;101535.00;;;;5100967;28;20181;-65
2022/06/03 12:07:06;;;;;;;0.43;0.43;;;27.20;74.20;26.80;101586.00;;;;5094372;28;20604;-65
2022/06/03 12:10:25;;;;;;;0.70;0.50;;;26.80;73.50;27.80;101580.00;;;;5100928;28;20176;-65
2022/06/03 12:13:17;;;;;;;0.20;0.20;;;27.00;73.00;27.90;101569.00;;;;5021907;28;20635;-65
2022/06/03 12:16:10;;;;;;;0.10;0.10;;;27.30;72.40;28.60;101564.00;;;;5092381;28;20192;-65
2022/06/03 12:18:39;;;;;;;0.63;0.60;;;27.80;72.80;27.70;101560.00;;;;5084746;28;20192;-65
2022/06/03 12:21:09;;;;;;;0.20;0.20;;;27.40;71.00;27.40;101543.00;;;;5095055;28;20177;-65
2022/06/03 12:23:37;;;;;;;0.40;0.40;;;27.00;69.90;27.20;101564.00;;;;5094107;28;20180;-66
2022/06/03 12:26:26;;;;;;;0.63;0.63;;;26.80;69.90;27.50;101542.00;;;;5097829;28;20191;-65
2022/06/03 12:29:17;;;;;;;0.20;0.20;;;27.00;69.90;26.70;101565.00;;;;5098369;28;20188;-66
2022/06/03 12:31:45;;;;;;;0.82;0.52;;;26.50;70.60;26.90;101571.00;;;;5115368;28;20216;-65
2022/06/03 12:34:20;;;;;;;0.15;0.15;;;26.40;69.40;27.20;101562.00;;;;5114182;28;20181;-65
2022/06/03 12:36:50;;;;;;;0.22;0.22;;;26.60;70.00;27.40;101534.00;;;;5114664;28;20160;-65
2022/06/03 12:39:22;;;;;;;0.22;0.22;;;26.60;69.70;27.40;101560.00;;;;5115215;28;20207;-65
2022/06/03 12:41:48;;;;;;;0.30;0.30;;;26.70;71.90;27.30;101559.00;;;;5114402;28;20207;-65
2022/06/03 12:44:34;;;;;;;0.17;0.17;;;26.70;71.90;28.10;101529.00;;;;5115531;28;20249;-65
2022/06/03 12:47:18;;;;;;;0.10;0.10;;;27.00;72.50;27.80;101552.00;;;;5114509;28;20176;-64
2022/06/03 12:49:43;;;;;;;0.17;0.17;;;27.10;69.70;27.80;101523.00;;;;5115568;28;20204;-65
2022/06/03 12:52:22;;;;;;;0.45;0.45;;;27.20;71.60;27.70;101567.00;;;;5114856;28;20219;-65
2022/06/03 12:55:23;;;;;;;0.30;0.30;;;27.00;71.70;27.80;101558.00;;;;5114151;28;20218;-66
2022/06/03 12:57:56;;;;;;;0.30;0.30;;;27.00;70.30;27.50;101559.00;;;;5115249;28;20248;-65